Athens Eleftherios, Greece

2:42 AM EEST on August 27, 2016 (GMT +0300)
Agios Nikolaos, Spata-19004, Athens (GR) | | Change Station

Elev 446 ft 37.98 °N, 23.90 °E | Updated 49 seconds ago

Clear
Clear
74.4 °F
Feels Like 77 °F
N
5.4
Wind Variable Wind from North
Gusts 12.1 mph

Today
High -- | Low -- °F
--% Chance of Precip.
Yesterday
High -- | Low -- °F
Precip. -- in
Pressure 30.01 in
Visibility -9999.0 miles
Clouds
Heat Index 77 °F
Dew Point 56 °F
Humidity 52%
Rainfall 0.00 in
Snow Depth Not available.
6:50 AM 8:00 PM
Waning Crescent, 30% visible
METAR LGAV 262320Z 03018KT CAVOK 24/14 Q1016 NOSIG
Pressure 30.01 in
Visibility -9999.0 miles
Clouds
Heat Index 77 °F
Dew Point 56 °F
Humidity 52%
Rainfall 0.00 in
Snow Depth Not available.
6:50 AM 8:00 PM
Waning Crescent, 30% visible
METAR LGAV 262320Z 03018KT CAVOK 24/14 Q1016 NOSIG

10-Day Weather Forecast

×

Almanac

Astronomy

Aug. 27, 2016 Rise Set
Actual Time
Civil Twilight
Nautical Twilight
Astronomical Twilight
Moon
Length of Visible Light
Length of Day
Tomorrow will be .
, % of the Moon is Illuminated

Today's Extremes

Country Highs Country Lows

Community

WunderPhotos

Upload Photos

1,935,255 photos uploaded!

WunderBlog® & News

Nearby

Air Quality

  Air Quality AQ Index Pollutant
Not available.

Snow Depth

Station Depth Elevation

Earthquake Activity

City Distance Mag. Time & Date
Minimum magnitude displayed is 2.5.

Coastal Water Temperatures

Place Temperature

Stations

Nearby Weather Stations

Station Location Temp. Windchill Dew Point Humidity Wind Precip. Elev Updated Type